Angelo Coast Range Reserve, California Weather observations

Data are for 10 minute period ending at time listed.
 Day   Time   Solar   Ave.   Ave.  Ave.  Vector  Max.   Baro.   Total    
  of    of     Rad.   Air    Rel.  Wind   Wind   Wind  Press.  Precip.   
Year   Day            Temp.  Hum.  Speed  Dir.   Gust                    
2016   (PST)  Kw/m2    F      %     mph   deg.    mph    mb.     in.     
-------------------------------------------------------------------------
 235   21:40   0.00   59.8    73    1.1   191     2.6   964.4    0.00 
 235   21:50   0.00   59.3    74    0.4   183     2.1   964.5    0.00 
 235   22:00   0.00   58.9    75    0.8   181     4.1   964.6    0.00 
 235   22:10   0.00   58.5    76    2.6   180     4.1   964.6    0.00 
 235   22:20   0.00   58.4    77    1.6   184     2.9   964.7    0.00 
 235   22:30   0.00   58.1    77    1.7   196     3.4   964.8    0.00 
 235   22:40   0.00   57.7    79    0.5   186     1.7   964.8    0.00 
 235   22:50   0.00   57.3    80    0.2   183     0.9   964.9    0.00 
 235   23:00   0.00   56.9    80    0.0   155     0.5   965.0    0.00 
 235   23:10   0.00   56.5    82    1.7   181     3.3   965.0    0.00 
 235   23:20   0.00   56.1    82    0.6   194     2.6   965.1    0.00 
 235   23:30   0.00   55.8    83    0.1   220     1.1   965.1    0.00 
 235   23:40   0.00   55.5    84    0.3   179     1.5   965.2    0.00 
 235   23:50   0.00   55.3    84    0.3   190     1.4   965.3    0.00 
 236    0:00   0.00   54.9    85    1.3   174     2.0   965.3    0.00 
 236    0:10   0.00   54.8    86    0.5   164     3.0   965.5    0.00 
 236    0:20   0.00   54.4    86    0.9   185     2.0   965.5    0.00 
 236    0:30   0.00   54.0    86    0.0   169     0.9   965.6    0.00 
 236    0:40   0.00   53.5    88    0.0     0     0.0   965.6    0.00 
 236    0:50   0.00   53.4    88    0.0   169     0.5   965.5    0.00 
 236    1:00   0.00   53.2    88    0.4   169     1.2   965.5    0.00 
 236    1:10   0.00   52.9    89    0.1   169     0.9   965.4    0.00 
 236    1:20   0.00   52.7    89    0.2   169     1.0   965.4    0.00 
 236    1:30   0.00   52.4    89    0.4   169     1.5   965.4    0.00 
 236    1:40   0.00   52.0    90    0.5   175     1.2   965.4    0.00 
 236    1:50   0.00   51.8    90    0.2   172     1.2   965.5    0.00 
 236    2:00   0.00   51.5    89    0.0     0     0.0   965.4    0.00 
 236    2:10   0.00   51.2    91    0.0     0     0.0   965.4    0.00 
 236    2:20   0.00   50.9    91    0.0     0     0.0   965.3    0.00 
 236    2:30   0.00   50.5    92    0.0     0     0.0   965.2    0.00 
 236    2:40   0.00   50.2    93    0.5   170     2.0   965.2    0.00 
 236    2:50   0.00   50.2    91    1.6   163     2.3   965.3    0.00 
 236    3:00   0.00   50.2    89    1.4   188     2.4   965.3    0.00 
 236    3:10   0.00   49.8    89    0.3   195     1.7   965.3    0.00 
 236    3:20   0.00   49.7    89    0.5   185     1.0   965.4    0.00 
 236    3:30   0.00   49.6    89    0.1   185     0.6   965.4    0.00 
 236    3:40   0.00   49.3    90    0.0     0     0.0   965.4    0.00 
 236    3:50   0.00   49.1    90    0.0     0     0.0   965.4    0.00 
 236    4:00   0.00   48.8    91    0.4   185     1.4   965.5    0.00 
 236    4:10   0.00   48.7    90    0.2   187     0.8   965.5    0.00 
 236    4:20   0.00   48.6    90    0.0     0     0.0   965.5    0.00 
 236    4:30   0.00   48.2    91    0.0   199     0.4   965.5    0.00 
 236    4:40   0.00   48.2    91    0.3   192     1.2   965.5    0.00 
 236    4:50   0.00   48.1    91    0.0     0     0.0   965.7    0.00 
 236    5:00   0.00   47.8    90    0.6   178     1.5   965.8    0.00 
 236    5:10   0.00   47.7    88    0.1   173     1.1   966.1    0.00 
 236    5:20   0.00   47.7    87    0.5   159     1.3   966.2    0.00 
 236    5:30   0.00   47.7    88    0.0   160     0.5   966.4    0.00 
 236    5:40   0.00   47.7    88    0.0     0     0.0   966.5    0.00 
 236    5:50   0.00   47.6    89    0.0     0     0.0   966.6    0.00 
 236    6:00   0.01   47.3    89    0.0     0     0.0   966.6    0.00 
 236    6:10   0.01   47.2    90    0.0     0     0.0   966.7    0.00 
 236    6:20   0.01   47.2    91    0.0     0     0.0   966.9    0.00 
 236    6:30   0.01   47.2    91    0.0     0     0.0   967.0    0.00 
 236    6:40   0.01   47.3    92    0.2   160     1.2   967.2    0.00 
 236    6:50   0.02   47.6    92    1.0   171     1.8   967.2    0.00 
 236    7:00   0.03   47.7    90    1.6   179     2.2   967.2    0.00 
 236    7:10   0.03   47.8    89    1.6   180     2.5   967.2    0.00 
 236    7:20   0.03   48.1    89    1.4   178     1.9   967.3    0.00 
 236    7:30   0.03   48.3    88    0.3   182     1.0   967.3    0.00 
 236    7:40   0.04   48.6    88    0.0     0     0.0   967.3    0.00 
 236    7:50   0.04   49.3    86    0.0     0     0.0   967.4    0.00 
 236    8:00   0.04   50.3    83    0.0     0     0.0   967.4    0.00 
 236    8:10   0.04   51.4    81    0.8    88     1.2   967.4    0.00 
 236    8:20   0.04   52.7    79    1.0    90     1.4   967.3    0.00 
 236    8:30   0.10   54.7    74    1.1    94     1.5   967.3    0.00 
 236    8:40   0.06   57.3    70    1.0   104     1.5   967.2    0.00 
 236    8:50   0.08   59.2    67    0.7   102     1.3   967.1    0.00 
 236    9:00   0.09   60.9    63    1.1   114     1.7   967.0    0.00 
 236    9:10   0.23   62.8    61    1.4   101     2.6   967.0    0.00 
 236    9:20   0.54   64.8    57    1.7    96     2.3   966.9    0.00 
 236    9:30   0.62   67.3    49    1.7   102     2.2   966.9    0.00 
 236    9:40   0.66   69.9    47    1.2   101     1.8   967.0    0.00 
 236    9:50   0.68   71.9    43    1.6   109     2.8   967.0    0.00 
 236   10:00   0.70   72.9    40    1.8   117     3.6   967.0    0.00 
 236   10:10   0.73   74.9    39    1.5   118     3.5   967.2    0.00 
 236   10:20   0.74   76.9    37    1.7   120     3.8   967.3    0.00 
 236   10:30   0.76   78.4    36    1.9   124     4.2   967.3    0.00 
 236   10:40   0.78   80.6    33    2.9   132     6.3   967.3    0.00 
 236   10:50   0.80   83.0    30    1.8   129     4.4   967.3    0.00 
 236   11:00   0.81   84.8    29    2.3   151     6.1   967.2    0.00 
 236   11:10   0.82   85.1    27    4.3   163     9.3   967.2    0.00 
 236   11:20   0.83   84.9    27    4.5   146    10.9   967.2    0.00 
 236   11:30   0.84   84.8    26    6.6   157    10.4   967.2    0.00 
 236   11:40   0.84   85.4    26    4.6   152     9.2   967.2    0.00 
 236   11:50   0.84   86.0    25    3.9   137     9.1   967.2    0.00 
 236   12:00   0.84   85.5    24    5.9   151    10.7   967.3    0.00 
 236   12:10   0.85   85.3    21    6.7   147    11.2   967.3    0.00 
 236   12:20   0.85   84.9    20    7.2   158    10.7   967.3    0.00 
 236   12:30   0.84   84.9    20    8.1   158    13.5   967.3    0.00 
 236   12:40   0.84   84.5    23    9.2   165    14.0   967.3    0.00 
 236   12:50   0.84   85.6    24    5.5   145    11.1   967.2    0.00 
 236   13:00   0.84   86.1    22    7.7   161    14.0   967.2    0.00 
 236   13:10   0.83   85.8    21    7.8   162    13.6   967.2    0.00 
 236   13:20   0.83   85.2    24    9.3   159    14.2   967.2    0.00 
 236   13:30   0.82   84.6    27    8.8   163    12.6   967.2    0.00 
 236   13:40   0.76   83.7    28    7.2   154    11.4   967.3    0.00 
 236   13:50   0.80   84.1    28    5.7   149    11.7   967.3    0.00 
 236   14:00   0.78   83.6    28    6.6   152    11.3   967.2    0.00 
 236   14:10   0.77   84.1    26    5.9   154    11.0   967.2    0.00 
 236   14:20   0.75   84.1    27    7.0   159    13.0   967.2    0.00 
 236   14:30   0.73   84.2    27    8.1   158    13.1   967.2    0.00 
 236   14:40   0.71   84.1    29    6.0   140    12.2   967.2    0.00 
 236   14:50   0.69   83.8    29    7.6   149    12.8   967.2    0.00 
 236   15:00   0.67   83.0    29    5.8   139    10.7   967.3    0.00 
 236   15:10   0.65   82.8    29    6.5   147    14.6   967.3    0.00 
 236   15:20   0.62   81.8    31    7.8   137    13.2   967.3    0.00 
 236   15:30   0.60   82.2    32    6.4   117    12.1   967.3    0.00 
 236   15:40   0.57   81.2    32    5.4   146    11.5   967.4    0.00 
 236   15:50   0.54   80.1    32    6.4   148    13.1   967.4    0.00 
 236   16:00   0.51   79.4    33    6.3   157    13.7   967.5    0.00 
 236   16:10   0.48   79.9    34    4.7   149    10.4   967.4    0.00 
 236   16:20   0.45   79.4    34    4.5   162     9.4   967.4    0.00 
 236   16:30   0.40   79.7    33    4.3   163     8.1   967.4    0.00 
 236   16:40   0.18   78.2    34    4.4   176     6.9   967.3    0.00 
 236   16:50   0.04   77.6    35    2.2   174     7.1   967.2    0.00 
 236   17:00   0.03   77.1    36    4.4   171     8.0   967.0    0.00 
 236   17:10   0.03   76.9    36    3.0   170     6.4   966.9    0.00 
 236   17:20   0.03   76.7    37    3.2   174     6.0   966.9    0.00 
 236   17:30   0.03   76.2    39    4.2   168     8.0   966.8    0.00 
 236   17:40   0.03   75.8    41    5.5   156     9.6   966.8    0.00 
 236   17:50   0.03   75.2    42    4.8   150     7.5   966.8    0.00 
 236   18:00   0.01   74.4    44    5.0   149     8.8   966.8    0.00 
 236   18:10   0.01   73.4    46    5.7   153     9.9   966.8    0.00 
 236   18:20   0.01   72.4    48    6.0   158    11.0   966.9    0.00 
 236   18:30   0.01   71.4    49    3.9   151    10.5   967.0    0.00 
 236   18:40   0.01   70.7    50    4.2   150     7.5   967.1    0.00 
 236   18:50   0.01   69.8    52    4.2   158     6.6   967.2    0.00 
 236   19:00   0.00   69.0    53    4.3   164     7.4   967.3    0.00 
 236   19:10   0.00   68.4    54    3.9   159     6.4   967.3    0.00 
 236   19:20   0.00   67.7    55    2.4   152     4.6   967.3    0.00 
 236   19:30   0.00   66.9    56    2.7   158     5.3   967.3    0.00 
 236   19:40   0.00   66.2    58    3.7   153     5.7   967.5    0.00 
 236   19:50   0.00   65.5    59    4.3   154     7.5   967.5    0.00 
 236   20:00   0.00   64.8    61    3.6   153     5.9   967.7    0.00 
 236   20:10   0.00   64.1    62    3.0   150     4.7   967.9    0.00 
 236   20:20   0.00   63.2    64    2.4   165     3.4   968.0    0.00 
 236   20:30   0.00   62.0    67    1.5   190     2.9   968.1    0.00 
 236   20:40   0.00   61.2    68    0.4   202     1.6   968.3    0.00 
 236   20:50   0.00   60.4    70    1.3   197     3.0   968.3    0.00 
 236   21:00   0.00   59.9    72    0.5   182     1.4   968.2    0.00 
 236   21:10   0.00   59.3    73    0.3   198     1.4   968.2    0.00 
 236   21:20   0.00   58.9    74    0.5   180     1.3   968.3    0.00 
 236   21:30   0.00   58.3    75    0.8   186     2.3   968.4    0.00 

Return to Angelo Coast Range Reserve graphs page.


Western Regional Climate Center,wrcc@dri.edu